Time;durP1;ratioP1;P1;durP2;ratioP2;P2;SDS_P1;SDS_P2;PMS_P1;PMS_P2;Temp;Humidity;BMP_temperature;BMP_pressure;BME280_temperature;BME280_humidity;BME280_pressure;Samples;Min_cycle;Max_cycle;Signal;HPM_P1;HPM_P2
2020/12/11 00:02:03;;;;;;;13.68;11.65;;;0.10;99.90;;;;;;5072835;28;20167;-53
2020/12/11 00:04:28;;;;;;;15.02;12.40;;;0.10;99.90;;;;;;5073382;28;20552;-57
2020/12/11 00:06:58;;;;;;;13.10;11.67;;;0.10;99.90;;;;;;5072764;28;20171;-58
2020/12/11 00:09:24;;;;;;;13.68;12.02;;;0.10;99.90;;;;;;5073303;28;20195;-58
2020/12/11 00:11:50;;;;;;;13.15;12.02;;;0.00;99.90;;;;;;5072702;28;20300;-58
2020/12/11 00:14:17;;;;;;;17.43;12.90;;;0.00;99.90;;;;;;5072450;28;20223;-58
2020/12/11 00:16:42;;;;;;;19.77;11.80;;;0.00;99.90;;;;;;5071550;28;20506;-58
2020/12/11 00:19:08;;;;;;;11.07;10.03;;;0.00;99.90;;;;;;5073084;28;20659;-57
2020/12/11 00:21:41;;;;;;;12.00;10.80;;;0.00;99.90;;;;;;5073296;28;20191;-58
2020/12/11 00:24:08;;;;;;;13.77;11.63;;;0.00;99.90;;;;;;5072793;28;20266;-58
2020/12/11 00:26:34;;;;;;;15.80;14.20;;;0.00;99.90;;;;;;5072263;28;20167;-57
2020/12/11 00:28:59;;;;;;;13.33;11.23;;;-0.10;99.90;;;;;;5071606;28;20199;-59
2020/12/11 00:31:26;;;;;;;16.33;12.27;;;-0.10;99.90;;;;;;5072990;28;20642;-57
2020/12/11 00:33:52;;;;;;;15.52;12.68;;;-0.10;99.90;;;;;;5072499;28;20182;-57
2020/12/11 00:36:18;;;;;;;14.73;12.30;;;-0.10;99.90;;;;;;5072795;28;20178;-57
2020/12/11 00:38:44;;;;;;;17.60;12.88;;;-0.10;99.90;;;;;;5072391;28;20173;-57
2020/12/11 00:41:10;;;;;;;18.70;13.53;;;0.00;99.90;;;;;;5072565;28;20598;-59
2020/12/11 00:43:36;;;;;;;18.10;13.07;;;0.00;99.90;;;;;;5071209;28;20272;-57
2020/12/11 00:46:05;;;;;;;20.53;13.50;;;0.00;99.90;;;;;;5073042;28;20567;-59
2020/12/11 00:48:31;;;;;;;14.38;12.40;;;0.00;99.90;;;;;;5071076;28;20463;-55
2020/12/11 00:50:57;;;;;;;17.10;13.15;;;-0.10;99.90;;;;;;5072417;28;20689;-58
2020/12/11 00:53:22;;;;;;;17.53;13.70;;;0.00;99.90;;;;;;5071870;28;20191;-58
2020/12/11 00:55:48;;;;;;;14.80;12.23;;;0.00;99.90;;;;;;5071979;28;20295;-59
2020/12/11 00:58:14;;;;;;;19.73;13.97;;;-0.10;99.90;;;;;;5072028;28;20199;-58
2020/12/11 01:00:39;;;;;;;16.80;12.93;;;-0.10;99.90;;;;;;5072354;28;20650;-58
2020/12/11 01:03:05;;;;;;;13.90;12.30;;;0.00;99.90;;;;;;5072075;28;20437;-58
2020/12/11 01:05:32;;;;;;;22.43;16.50;;;0.00;99.90;;;;;;5072382;28;20541;-58
2020/12/11 01:07:57;;;;;;;15.05;12.80;;;0.00;99.90;;;;;;5072352;28;20275;-57
2020/12/11 01:10:24;;;;;;;12.37;10.83;;;0.00;99.90;;;;;;5074540;28;20637;-59
2020/12/11 01:12:50;;;;;;;17.70;15.88;;;0.20;99.90;;;;;;5073252;28;20229;-60
2020/12/11 01:15:16;;;;;;;15.85;13.75;;;0.10;99.90;;;;;;5072063;28;20170;-58
2020/12/11 01:17:41;;;;;;;12.90;11.50;;;0.10;99.90;;;;;;5071664;28;20167;-58
2020/12/11 01:20:07;;;;;;;16.43;12.53;;;0.10;99.90;;;;;;5072068;28;20250;-59
2020/12/11 01:22:32;;;;;;;15.70;12.73;;;0.20;99.90;;;;;;5071858;28;20170;-60
2020/12/11 01:24:59;;;;;;;13.60;11.90;;;0.20;99.90;;;;;;5071868;28;20181;-58
2020/12/11 01:27:24;;;;;;;14.20;12.55;;;0.20;99.90;;;;;;5071678;28;20201;-58
2020/12/11 01:29:50;;;;;;;15.57;13.00;;;0.20;99.90;;;;;;5072045;28;20249;-59
2020/12/11 01:32:16;;;;;;;15.77;11.45;;;0.20;99.90;;;;;;5068679;28;20179;-58
2020/12/11 01:34:41;;;;;;;12.57;11.17;;;0.30;99.90;;;;;;5073628;28;20191;-58
2020/12/11 01:37:07;;;;;;;13.67;11.77;;;0.30;99.90;;;;;;5071485;28;20182;-58
2020/12/11 01:39:33;;;;;;;12.80;11.00;;;0.30;99.90;;;;;;5071552;28;20511;-58
2020/12/11 01:41:59;;;;;;;13.60;11.70;;;0.40;99.90;;;;;;5072058;28;20561;-57
2020/12/11 01:44:26;;;;;;;14.07;12.15;;;0.40;99.90;;;;;;5071632;28;21018;-57
2020/12/11 01:46:53;;;;;;;15.30;13.00;;;0.40;99.90;;;;;;5071420;28;20635;-57
2020/12/11 01:49:19;;;;;;;16.83;15.02;;;0.50;99.90;;;;;;5071468;28;20191;-59
2020/12/11 01:51:45;;;;;;;15.03;11.80;;;0.50;99.90;;;;;;5071746;28;20165;-60
2020/12/11 01:54:11;;;;;;;16.02;12.60;;;0.50;99.90;;;;;;5071288;28;20194;-57
2020/12/11 01:57:03;;;;;;;14.20;12.17;;;0.50;99.90;;;;;;5071398;28;20163;-59
2020/12/11 01:59:48;;;;;;;15.65;11.60;;;0.40;99.90;;;;;;5071397;28;20578;-59
2020/12/11 02:02:14;;;;;;;15.75;12.60;;;0.40;99.90;;;;;;5071639;28;20571;-58
2020/12/11 02:04:39;;;;;;;14.33;11.17;;;0.50;99.90;;;;;;5072084;28;20262;-58
2020/12/11 02:07:05;;;;;;;14.30;12.90;;;0.50;99.90;;;;;;5075395;28;20405;-59
2020/12/11 02:09:35;;;;;;;13.30;11.32;;;0.40;99.90;;;;;;5067663;28;20202;-57
2020/12/11 02:12:02;;;;;;;11.27;10.27;;;0.50;99.90;;;;;;5079920;28;20678;-58
2020/12/11 02:14:28;;;;;;;15.05;12.32;;;0.50;99.90;;;;;;5075318;28;20725;-59
2020/12/11 02:17:03;;;;;;;13.50;11.10;;;0.50;99.90;;;;;;5075324;28;20559;-57
2020/12/11 02:19:30;;;;;;;14.80;11.60;;;0.40;99.90;;;;;;5075516;28;20181;-59
2020/12/11 02:21:58;;;;;;;13.00;11.70;;;0.40;99.90;;;;;;5075333;28;20655;-57
2020/12/11 02:24:24;;;;;;;15.57;12.38;;;0.40;99.90;;;;;;5075282;28;20558;-58
2020/12/11 02:26:56;;;;;;;14.57;11.93;;;0.40;99.90;;;;;;5074932;28;20159;-56
2020/12/11 02:29:22;;;;;;;14.63;12.30;;;0.40;99.90;;;;;;5075284;28;20191;-54
2020/12/11 02:31:48;;;;;;;13.03;11.80;;;0.40;99.90;;;;;;5075092;28;20636;-58
2020/12/11 02:34:13;;;;;;;11.40;10.13;;;0.50;99.90;;;;;;5075060;28;20278;-59
2020/12/11 02:36:39;;;;;;;10.20;9.10;;;0.40;99.90;;;;;;5074699;28;20224;-59
2020/12/11 02:39:04;;;;;;;15.50;13.23;;;0.40;99.90;;;;;;5075209;28;20559;-60
2020/12/11 02:41:30;;;;;;;12.13;10.90;;;0.40;99.90;;;;;;5073627;28;20178;-59
2020/12/11 02:43:55;;;;;;;11.27;10.10;;;0.50;99.90;;;;;;5074869;28;20195;-56
2020/12/11 02:46:21;;;;;;;16.00;10.63;;;0.50;99.90;;;;;;5074929;28;20163;-56
2020/12/11 02:48:46;;;;;;;12.97;11.67;;;0.40;99.90;;;;;;5074473;28;20202;-56
2020/12/11 02:51:12;;;;;;;14.07;11.40;;;0.40;99.90;;;;;;5074958;28;20175;-58
2020/12/11 02:53:39;;;;;;;13.73;11.07;;;0.40;99.90;;;;;;5074594;28;20183;-59
2020/12/11 02:56:04;;;;;;;15.00;12.25;;;0.40;99.90;;;;;;5074860;28;20213;-57
2020/12/11 02:58:30;;;;;;;13.77;11.47;;;0.40;99.90;;;;;;5073678;28;20190;-58
2020/12/11 03:00:55;;;;;;;17.37;11.90;;;0.30;99.90;;;;;;5073510;28;20174;-59
2020/12/11 03:03:21;;;;;;;13.17;11.27;;;0.40;99.90;;;;;;5073262;28;20194;-60
2020/12/11 03:05:46;;;;;;;10.63;9.47;;;0.40;99.90;;;;;;5073383;28;20171;-57
2020/12/11 03:08:12;;;;;;;15.60;12.17;;;0.40;99.90;;;;;;5073068;28;20190;-56
2020/12/11 03:10:38;;;;;;;12.87;11.20;;;0.40;99.90;;;;;;5073363;28;20529;-57
2020/12/11 03:13:03;;;;;;;12.87;11.53;;;0.40;99.90;;;;;;5073360;28;20555;-59
2020/12/11 03:15:29;;;;;;;12.00;10.27;;;0.40;99.90;;;;;;5072982;28;20168;-57
2020/12/11 03:17:54;;;;;;;11.73;10.53;;;0.40;99.90;;;;;;5072461;28;20175;-59
2020/12/11 03:20:23;;;;;;;11.97;10.63;;;0.40;99.90;;;;;;5073122;28;20257;-60
2020/12/11 03:22:51;;;;;;;13.07;11.75;;;0.40;99.90;;;;;;5073164;28;20191;-59
2020/12/11 03:25:16;;;;;;;11.77;10.35;;;0.40;99.90;;;;;;5072914;28;20236;-59
2020/12/11 03:27:42;;;;;;;11.70;10.60;;;0.40;99.90;;;;;;5072791;28;20274;-59
2020/12/11 03:30:07;;;;;;;12.90;11.70;;;0.40;99.90;;;;;;5072927;28;20251;-59
2020/12/11 03:32:33;;;;;;;13.90;11.10;;;0.40;99.90;;;;;;5072970;28;20166;-59
2020/12/11 03:34:58;;;;;;;11.47;9.90;;;0.40;99.90;;;;;;5072928;28;20163;-57
2020/12/11 03:37:24;;;;;;;11.47;10.27;;;0.40;99.90;;;;;;5072549;28;20163;-60
2020/12/11 03:39:49;;;;;;;12.33;11.03;;;0.40;99.90;;;;;;5073629;28;20167;-56
2020/12/11 03:42:15;;;;;;;11.83;8.57;;;0.40;99.90;;;;;;5072726;28;20700;-58
2020/12/11 03:44:40;;;;;;;11.10;9.83;;;0.50;99.90;;;;;;5072650;28;20651;-60
2020/12/11 03:47:06;;;;;;;10.77;8.63;;;0.50;99.90;;;;;;5072429;28;20627;-58
2020/12/11 03:49:32;;;;;;;15.80;10.10;;;0.60;99.90;;;;;;5072748;28;20256;-57
2020/12/11 03:51:57;;;;;;;13.93;12.47;;;0.60;99.90;;;;;;5072586;28;20159;-56
2020/12/11 03:54:23;;;;;;;14.27;10.60;;;0.60;99.90;;;;;;5072528;28;20183;-60
2020/12/11 03:56:48;;;;;;;13.70;10.27;;;0.60;99.90;;;;;;5071528;28;20242;-58
2020/12/11 03:59:14;;;;;;;15.70;11.27;;;0.60;99.90;;;;;;5052149;28;575814;-55
2020/12/11 04:01:40;;;;;;;14.03;10.47;;;0.60;99.90;;;;;;5073597;28;20198;-56
2020/12/11 04:04:07;;;;;;;15.65;11.20;;;0.60;99.90;;;;;;5073244;28;20445;-56
2020/12/11 04:06:33;;;;;;;11.77;10.60;;;0.80;99.90;;;;;;5073273;28;20191;-60
2020/12/11 04:08:59;;;;;;;13.87;11.80;;;0.80;99.90;;;;;;5073163;28;20258;-56
2020/12/11 04:11:24;;;;;;;15.47;12.57;;;0.80;99.90;;;;;;5073575;28;20159;-57
2020/12/11 04:13:50;;;;;;;14.47;12.70;;;0.80;99.90;;;;;;5072921;28;20559;-59
2020/12/11 04:16:15;;;;;;;14.30;12.90;;;0.70;99.90;;;;;;5073394;28;20175;-60
2020/12/11 04:18:43;;;;;;;13.07;10.47;;;0.80;99.90;;;;;;5072802;28;20246;-57
2020/12/11 04:21:15;;;;;;;13.02;10.70;;;0.70;99.90;;;;;;5073179;28;20167;-60
2020/12/11 04:23:43;;;;;;;15.07;11.73;;;0.80;99.90;;;;;;5072949;28;20202;-58
2020/12/11 04:26:08;;;;;;;16.55;10.93;;;0.80;99.90;;;;;;5073033;28;20240;-57
2020/12/11 04:28:34;;;;;;;13.67;9.50;;;0.80;99.90;;;;;;5071714;28;20670;-59
2020/12/11 04:31:00;;;;;;;14.97;12.10;;;0.80;99.90;;;;;;5072877;28;20163;-58
2020/12/11 04:33:25;;;;;;;14.90;9.87;;;0.80;99.90;;;;;;5072901;28;20185;-60
2020/12/11 04:35:51;;;;;;;10.83;9.50;;;0.80;99.90;;;;;;5072720;28;20209;-56
2020/12/11 04:38:17;;;;;;;12.52;10.07;;;0.90;99.90;;;;;;5072608;28;20208;-58
2020/12/11 04:40:44;;;;;;;13.70;11.10;;;0.90;99.90;;;;;;5072691;28;20631;-58
2020/12/11 04:43:10;;;;;;;12.07;10.88;;;0.80;99.90;;;;;;5072645;28;20617;-56
2020/12/11 04:45:41;;;;;;;11.32;9.88;;;0.90;99.90;;;;;;5072453;28;20171;-58
2020/12/11 04:48:10;;;;;;;9.88;8.25;;;1.00;99.90;;;;;;5072288;28;20197;-60
2020/12/11 04:50:36;;;;;;;10.57;9.15;;;1.00;99.90;;;;;;5072589;28;20255;-56
2020/12/11 04:53:03;;;;;;;11.73;10.02;;;1.00;99.90;;;;;;5072448;28;20228;-58
2020/12/11 04:55:33;;;;;;;9.98;9.02;;;1.00;99.90;;;;;;5072412;28;20187;-58
2020/12/11 04:58:03;;;;;;;10.73;9.60;;;1.00;99.90;;;;;;5071849;28;20187;-60
2020/12/11 05:00:29;;;;;;;10.95;9.23;;;1.10;99.90;;;;;;5072544;28;20167;-57
2020/12/11 05:02:55;;;;;;;13.07;8.87;;;1.10;99.90;;;;;;5072143;28;20186;-56
2020/12/11 05:05:21;;;;;;;9.02;7.63;;;1.10;99.90;;;;;;5072275;28;20176;-55
2020/12/11 05:07:46;;;;;;;10.83;8.67;;;1.10;99.90;;;;;;5071823;28;20196;-55
2020/12/11 05:10:13;;;;;;;11.23;10.07;;;1.10;99.90;;;;;;5072244;28;20632;-56
2020/12/11 05:12:39;;;;;;;9.65;8.65;;;1.20;99.90;;;;;;5071966;28;20170;-56
2020/12/11 05:15:09;;;;;;;8.87;7.77;;;1.10;99.90;;;;;;5072202;28;20160;-54
2020/12/11 05:17:37;;;;;;;13.45;9.63;;;1.20;99.90;;;;;;5071901;28;20444;-57
2020/12/11 05:20:05;;;;;;;8.40;7.60;;;1.20;99.90;;;;;;5072030;28;20167;-54
2020/12/11 05:22:32;;;;;;;9.32;7.10;;;1.20;99.90;;;;;;5071942;28;20655;-55
2020/12/11 05:24:58;;;;;;;9.90;7.00;;;1.20;99.90;;;;;;5071825;28;20258;-57
2020/12/11 05:27:33;;;;;;;10.68;8.20;;;1.20;99.90;;;;;;5071681;28;20199;-55
2020/12/11 05:30:02;;;;;;;9.13;7.82;;;1.20;99.90;;;;;;5071850;28;20164;-55
2020/12/11 05:32:47;;;;;;;8.27;7.43;;;1.10;99.90;;;;;;5071932;28;20163;-57
2020/12/11 05:35:18;;;;;;;9.65;8.50;;;1.20;99.90;;;;;;5071670;28;20236;-56
2020/12/11 05:37:45;;;;;;;8.90;8.00;;;1.20;99.90;;;;;;5071651;28;20167;-57
2020/12/11 05:40:21;;;;;;;9.23;7.53;;;1.10;99.90;;;;;;5071487;28;20224;-54
2020/12/11 05:43:22;;;;;;;10.20;8.32;;;1.10;99.90;;;;;;5071800;28;20187;-58
2020/12/11 05:45:58;;;;;;;9.10;8.15;;;1.10;99.90;;;;;;5071666;28;20223;-58
2020/12/11 05:48:36;;;;;;;9.18;8.10;;;1.10;99.90;;;;;;5071513;28;20224;-56
2020/12/11 05:51:17;;;;;;;8.02;7.22;;;1.10;99.90;;;;;;5071648;28;20168;-55
2020/12/11 05:53:43;;;;;;;9.70;8.68;;;1.10;99.90;;;;;;5071548;28;20186;-56
2020/12/11 05:56:09;;;;;;;8.80;7.90;;;1.00;99.90;;;;;;5071562;28;20163;-56
2020/12/11 05:58:35;;;;;;;11.20;8.63;;;1.00;99.90;;;;;;5071319;28;20281;-54
2020/12/11 06:01:01;;;;;;;9.00;8.02;;;1.00;99.90;;;;;;5071692;28;20544;-55
2020/12/11 06:03:28;;;;;;;11.85;8.55;;;1.10;99.90;;;;;;5071530;28;20656;-56
2020/12/11 06:05:57;;;;;;;9.30;8.00;;;1.00;99.90;;;;;;5071669;28;20246;-55
2020/12/11 06:08:26;;;;;;;15.32;11.40;;;1.00;99.90;;;;;;5071090;28;20218;-57
2020/12/11 06:10:52;;;;;;;9.52;8.63;;;1.00;99.90;;;;;;5071546;28;20191;-56
2020/12/11 06:13:32;;;;;;;8.50;7.70;;;1.00;99.90;;;;;;5071366;28;20210;-54
2020/12/11 06:16:00;;;;;;;8.13;6.72;;;1.00;99.90;;;;;;5071618;28;20466;-55
2020/12/11 06:18:31;;;;;;;8.75;7.65;;;1.00;99.90;;;;;;5069824;28;20171;-55
2020/12/11 06:20:59;;;;;;;12.15;9.18;;;1.00;99.90;;;;;;5071437;28;20172;-54
2020/12/11 06:23:29;;;;;;;10.80;8.60;;;1.00;99.90;;;;;;5071270;28;20240;-60
2020/12/11 06:25:56;;;;;;;11.70;8.65;;;1.00;99.90;;;;;;5071448;28;20584;-54
2020/12/11 06:28:50;;;;;;;10.40;8.55;;;1.00;99.90;;;;;;5070967;28;20219;-56
2020/12/11 06:31:17;;;;;;;8.55;7.03;;;1.00;99.90;;;;;;5071500;28;20165;-56
2020/12/11 06:33:49;;;;;;;9.32;7.45;;;1.00;99.90;;;;;;5071123;28;20179;-55
2020/12/11 06:36:15;;;;;;;10.40;9.07;;;1.00;99.90;;;;;;5071477;28;20160;-57
2020/12/11 06:38:46;;;;;;;10.10;8.27;;;1.00;99.90;;;;;;5071026;28;20679;-55
2020/12/11 06:41:13;;;;;;;9.85;8.48;;;1.00;99.90;;;;;;5071214;28;20489;-55
2020/12/11 06:43:43;;;;;;;11.40;8.40;;;1.10;99.90;;;;;;5069808;28;20282;-57
2020/12/11 06:46:18;;;;;;;8.50;7.65;;;1.00;99.90;;;;;;5071100;28;20163;-53
2020/12/11 06:49:09;;;;;;;12.57;8.52;;;1.10;99.90;;;;;;5070936;28;20191;-57
2020/12/11 06:51:44;;;;;;;10.05;9.05;;;1.00;99.90;;;;;;5071710;28;20163;-53
2020/12/11 06:54:10;;;;;;;10.68;8.23;;;1.00;99.90;;;;;;5074708;28;20215;-52
2020/12/11 06:56:47;;;;;;;8.57;7.63;;;1.10;99.90;;;;;;5074406;28;20217;-57
2020/12/11 06:59:31;;;;;;;10.23;8.45;;;1.10;99.90;;;;;;5074752;28;20641;-57
2020/12/11 07:02:17;;;;;;;9.95;8.27;;;1.10;99.90;;;;;;5074602;28;20170;-56
2020/12/11 07:04:44;;;;;;;11.00;8.68;;;1.10;99.90;;;;;;5074336;28;20256;-54
2020/12/11 07:07:10;;;;;;;9.90;8.18;;;1.10;99.90;;;;;;5074201;28;20167;-59
2020/12/11 07:09:40;;;;;;;12.60;7.75;;;1.10;99.90;;;;;;5074500;28;20272;-57
2020/12/11 07:12:07;;;;;;;14.32;9.50;;;1.20;99.90;;;;;;5074389;28;20166;-57
2020/12/11 07:14:32;;;;;;;10.65;9.10;;;1.10;99.90;;;;;;5074404;28;20265;-52
2020/12/11 07:16:58;;;;;;;11.63;8.53;;;1.10;99.90;;;;;;5074005;28;20171;-59
2020/12/11 07:19:24;;;;;;;11.77;7.97;;;1.10;99.90;;;;;;5074383;28;20272;-59
2020/12/11 07:21:49;;;;;;;12.47;10.20;;;1.10;99.90;;;;;;5074435;28;20195;-58
2020/12/11 07:24:15;;;;;;;11.43;8.00;;;1.10;99.90;;;;;;5074002;28;20536;-57
2020/12/11 07:26:41;;;;;;;9.40;8.40;;;1.10;99.90;;;;;;5074002;28;20402;-52
2020/12/11 07:29:10;;;;;;;10.93;8.37;;;1.10;99.90;;;;;;5074036;28;20445;-57
2020/12/11 07:31:39;;;;;;;11.35;9.15;;;1.10;99.90;;;;;;5074187;28;20402;-53
2020/12/11 07:34:32;;;;;;;13.35;8.85;;;1.20;99.90;;;;;;5073850;28;20180;-60
2020/12/11 07:36:58;;;;;;;8.75;7.47;;;1.20;99.90;;;;;;5073574;28;20182;-55
2020/12/11 07:39:29;;;;;;;11.97;8.63;;;1.20;99.90;;;;;;5073918;28;20175;-58
2020/12/11 07:41:56;;;;;;;8.88;8.07;;;1.30;99.90;;;;;;5074058;28;20178;-58
2020/12/11 07:44:30;;;;;;;8.90;7.60;;;1.30;99.90;;;;;;5073577;28;20187;-57
2020/12/11 07:47:01;;;;;;;9.75;7.47;;;1.30;99.90;;;;;;5073703;28;20237;-58
2020/12/11 07:49:53;;;;;;;9.98;7.75;;;1.40;99.90;;;;;;5073694;28;20198;-58
2020/12/11 07:52:27;;;;;;;9.20;7.47;;;1.40;99.90;;;;;;5073459;28;20195;-59
2020/12/11 07:54:53;;;;;;;7.63;6.70;;;1.40;99.90;;;;;;5073584;28;20155;-60
2020/12/11 07:57:23;;;;;;;8.57;7.77;;;1.50;99.90;;;;;;5073398;28;20671;-58
2020/12/11 08:00:08;;;;;;;8.25;6.47;;;1.60;99.90;;;;;;5073690;28;20279;-57
2020/12/11 08:02:34;;;;;;;6.88;6.18;;;1.70;99.90;;;;;;5073414;28;20168;-58
2020/12/11 08:05:07;;;;;;;8.98;7.82;;;1.70;99.90;;;;;;5073421;28;20167;-54
2020/12/11 08:07:33;;;;;;;9.25;4.90;;;1.80;99.90;;;;;;5072982;28;20165;-58
2020/12/11 08:10:10;;;;;;;9.40;5.97;;;1.90;99.90;;;;;;5073516;28;20169;-56
2020/12/11 08:12:39;;;;;;;6.90;6.30;;;1.80;99.90;;;;;;5073627;28;20174;-61
2020/12/11 08:15:05;;;;;;;5.80;5.20;;;1.90;99.90;;;;;;5074418;28;20200;-58
2020/12/11 08:17:32;;;;;;;6.63;5.88;;;2.00;99.90;;;;;;5072866;28;20575;-56
2020/12/11 08:19:58;;;;;;;5.57;5.07;;;2.00;99.90;;;;;;5073316;28;20195;-60
2020/12/11 08:22:31;;;;;;;6.20;5.63;;;2.00;99.90;;;;;;5072921;28;20632;-54
2020/12/11 08:24:56;;;;;;;5.65;5.15;;;2.00;99.90;;;;;;5073228;28;20346;-56
2020/12/11 08:27:24;;;;;;;6.63;5.50;;;2.00;99.90;;;;;;5072601;28;20868;-55
2020/12/11 08:30:14;;;;;;;5.35;4.82;;;2.10;99.90;;;;;;5073151;28;20196;-60
2020/12/11 08:32:40;;;;;;;6.57;5.28;;;2.00;99.90;;;;;;5072811;28;20187;-60
2020/12/11 08:35:21;;;;;;;7.15;5.20;;;2.10;99.90;;;;;;5072938;28;20169;-55
2020/12/11 08:37:54;;;;;;;5.20;4.65;;;2.20;99.90;;;;;;5072544;28;20165;-58
2020/12/11 08:40:21;;;;;;;5.60;5.10;;;2.20;99.90;;;;;;5072785;28;20191;-60
2020/12/11 08:51:03;;;;;;;7.40;6.63;;;2.40;99.90;;;;;;5072471;28;20219;-55
2020/12/11 08:53:34;;;;;;;6.05;5.45;;;2.40;99.90;;;;;;5072483;28;20558;-59
2020/12/11 08:56:09;;;;;;;5.50;5.00;;;2.40;99.90;;;;;;5072488;28;20167;-57
2020/12/11 08:58:35;;;;;;;6.10;5.60;;;2.40;99.90;;;;;;5072087;28;20193;-56
2020/12/11 09:01:00;;;;;;;6.60;5.53;;;2.40;99.90;;;;;;5072336;28;20218;-58
2020/12/11 09:03:26;;;;;;;7.90;6.03;;;2.40;99.90;;;;;;5072419;28;20426;-58
2020/12/11 09:05:52;;;;;;;6.30;5.70;;;2.40;99.90;;;;;;5072153;28;20715;-56
2020/12/11 09:08:17;;;;;;;5.57;5.07;;;2.40;99.90;;;;;;5071991;28;20657;-57
2020/12/11 09:10:43;;;;;;;6.90;6.20;;;2.40;99.90;;;;;;5072173;28;20208;-58
2020/12/11 09:13:09;;;;;;;4.27;3.87;;;2.50;99.90;;;;;;5072503;28;20192;-60
2020/12/11 09:15:34;;;;;;;5.37;4.87;;;2.50;99.90;;;;;;5071585;28;20259;-55
2020/12/11 09:18:00;;;;;;;4.97;4.57;;;2.50;99.90;;;;;;5071821;28;20552;-57
2020/12/11 09:20:25;;;;;;;4.70;4.30;;;2.50;99.90;;;;;;5072106;28;20172;-54
2020/12/11 09:22:51;;;;;;;4.20;3.90;;;2.50;99.90;;;;;;5071898;28;20631;-60
2020/12/11 09:25:18;;;;;;;6.20;5.70;;;2.50;99.90;;;;;;5072175;28;20186;-56
2020/12/11 09:27:44;;;;;;;5.30;4.80;;;2.50;99.90;;;;;;5071567;28;20255;-56
2020/12/11 09:33:25;;;;;;;5.43;5.03;;;2.50;99.90;;;;;;5072089;28;20195;-58
2020/12/11 09:35:39;;;;;;;4.28;3.88;;;2.50;99.90;;;;;;5072466;28;20614;-58
2020/12/11 09:38:05;;;;;;;5.40;5.00;;;2.60;99.90;;;;;;5072189;28;20173;-61
2020/12/11 09:40:40;;;;;;;5.90;5.23;;;2.60;99.90;;;;;;5071981;28;20178;-58
2020/12/11 09:45:40;;;;;;;4.53;4.13;;;2.70;99.90;;;;;;5072010;28;20169;-60
2020/12/11 09:48:13;;;;;;;5.73;5.20;;;2.70;99.90;;;;;;5071457;28;20206;-60
2020/12/11 09:50:45;;;;;;;5.63;5.13;;;2.70;99.90;;;;;;5071944;28;20785;-60
2020/12/11 09:55:45;;;;;;;6.00;5.40;;;2.70;99.90;;;;;;5071540;28;20768;-61
2020/12/11 09:58:10;;;;;;;5.17;4.77;;;2.80;99.90;;;;;;5071410;28;20265;-61
2020/12/11 10:00:39;;;;;;;5.27;4.87;;;2.80;99.90;;;;;;5071682;28;20459;-60
2020/12/11 10:03:08;;;;;;;5.60;4.97;;;2.90;99.90;;;;;;5071648;28;20272;-60
2020/12/11 10:05:34;;;;;;;5.00;4.50;;;2.90;99.90;;;;;;5071413;28;20169;-60
2020/12/11 10:07:59;;;;;;;6.43;5.93;;;2.90;99.90;;;;;;5071376;28;20193;-60
2020/12/11 10:10:25;;;;;;;4.80;4.50;;;3.00;99.90;;;;;;5070313;28;20196;-59
2020/12/11 10:12:51;;;;;;;5.77;4.70;;;3.10;99.90;;;;;;5071745;28;20692;-60
2020/12/11 10:15:20;;;;;;;4.63;4.30;;;3.10;99.90;;;;;;5071820;28;20253;-61
2020/12/11 10:17:47;;;;;;;4.50;4.10;;;3.30;99.90;;;;;;5071512;28;20416;-61
2020/12/11 10:20:18;;;;;;;5.67;5.20;;;3.60;99.90;;;;;;5071830;28;20444;-61
2020/12/11 10:22:49;;;;;;;4.13;3.83;;;4.10;99.90;;;;;;5071470;28;20428;-61
2020/12/11 10:25:19;;;;;;;4.33;4.03;;;4.50;99.90;;;;;;5071637;28;20402;-61
2020/12/11 10:27:44;;;;;;;4.17;3.87;;;4.70;99.90;;;;;;5073785;28;20445;-61
2020/12/11 10:30:10;;;;;;;3.83;3.60;;;5.10;99.90;;;;;;5075463;28;20923;-61
2020/12/11 10:32:36;;;;;;;3.67;3.40;;;5.30;99.90;;;;;;5075220;28;20694;-61
2020/12/11 10:35:04;;;;;;;3.50;3.30;;;5.30;99.90;;;;;;5075239;28;20910;-61
2020/12/11 10:37:30;;;;;;;3.00;2.80;;;5.40;99.90;;;;;;5074741;28;20401;-61
2020/12/11 10:39:55;;;;;;;3.13;2.83;;;5.60;99.90;;;;;;5075235;28;20409;-61
2020/12/11 10:42:21;;;;;;;3.23;3.10;;;6.00;99.90;;;;;;5074897;28;20242;-61
2020/12/11 10:44:47;;;;;;;3.00;2.80;;;6.50;99.80;;;;;;5075037;28;20174;-61
2020/12/11 10:47:12;;;;;;;2.40;2.30;;;6.60;99.10;;;;;;5074626;28;20170;-61
2020/12/11 10:49:39;;;;;;;2.60;2.40;;;7.00;99.00;;;;;;5074772;28;20198;-61
2020/12/11 10:52:04;;;;;;;3.57;3.37;;;7.20;98.20;;;;;;5075000;28;20193;-61
2020/12/11 10:54:30;;;;;;;2.40;2.30;;;6.90;98.50;;;;;;5074613;28;20523;-61
2020/12/11 10:56:56;;;;;;;2.87;2.77;;;6.80;98.10;;;;;;5074551;28;20562;-61
2020/12/11 10:59:22;;;;;;;2.47;2.37;;;6.70;98.70;;;;;;5074626;28;20547;-61
2020/12/11 11:01:49;;;;;;;2.23;2.13;;;7.00;98.60;;;;;;5074802;28;20459;-61
2020/12/11 11:04:15;;;;;;;2.03;1.93;;;7.30;98.40;;;;;;5074286;28;20421;-61
2020/12/11 11:06:47;;;;;;;2.30;2.20;;;7.30;97.60;;;;;;5074407;28;20408;-61
2020/12/11 11:09:25;;;;;;;2.50;2.40;;;6.80;97.90;;;;;;5074452;28;20218;-61
2020/12/11 11:15:15;;;;;;;2.30;2.20;;;6.30;99.20;;;;;;5074217;28;20473;-61
2020/12/11 11:23:01;;;;;;;2.50;2.40;;;6.70;98.60;;;;;;5074308;28;20470;-61
2020/12/11 11:28:03;;;;;;;2.53;2.43;;;6.20;99.10;;;;;;5074075;28;20919;-61
2020/12/11 11:30:30;;;;;;;2.20;2.10;;;6.00;99.20;;;;;;5074150;28;20409;-61
2020/12/11 11:32:57;;;;;;;2.33;2.20;;;5.70;99.70;;;;;;5074109;28;20444;-61
2020/12/11 11:35:23;;;;;;;3.07;2.97;;;5.50;99.90;;;;;;5073839;28;20776;-61
2020/12/11 11:37:49;;;;;;;3.90;3.60;;;5.40;99.90;;;;;;5073419;28;20410;-61
2020/12/11 11:40:16;;;;;;;2.93;2.73;;;5.20;99.90;;;;;;5073916;28;20644;-61
2020/12/11 11:42:42;;;;;;;2.90;2.80;;;5.00;99.90;;;;;;5073980;28;20424;-61
2020/12/11 11:45:10;;;;;;;3.23;3.13;;;4.90;99.90;;;;;;5073765;28;20402;-61
2020/12/11 11:47:39;;;;;;;5.20;3.90;;;4.70;99.90;;;;;;5073511;28;20408;-61
2020/12/11 11:50:54;;;;;;;3.70;3.50;;;4.70;99.90;;;;;;5073845;28;20776;-61
2020/12/11 11:53:03;;;;;;;3.17;2.97;;;4.60;99.90;;;;;;5075932;28;20451;-61
2020/12/11 11:55:29;;;;;;;3.30;3.10;;;4.60;99.90;;;;;;5073667;28;20401;-61
2020/12/11 11:57:54;;;;;;;3.20;3.10;;;4.40;99.90;;;;;;5073387;28;20448;-61
2020/12/11 12:00:21;;;;;;;3.20;3.00;;;4.40;99.90;;;;;;5073732;28;20406;-61
2020/12/11 12:02:46;;;;;;;4.00;3.70;;;4.40;99.90;;;;;;5072248;28;20187;-60
2020/12/11 12:05:12;;;;;;;4.83;4.43;;;4.40;99.90;;;;;;5072673;28;20423;-61
2020/12/11 12:07:39;;;;;;;3.30;3.10;;;4.30;99.90;;;;;;5072557;28;20433;-61
2020/12/11 12:10:06;;;;;;;2.93;2.73;;;4.20;99.90;;;;;;5073507;28;20406;-61
2020/12/11 12:12:37;;;;;;;2.80;2.60;;;4.20;99.90;;;;;;5071792;28;20501;-61
2020/12/11 12:15:11;;;;;;;3.87;3.57;;;4.10;99.90;;;;;;5073123;28;20764;-61
2020/12/11 12:17:53;;;;;;;3.40;3.20;;;4.10;99.90;;;;;;5072798;28;20393;-60
2020/12/11 12:20:30;;;;;;;2.87;2.67;;;4.10;99.90;;;;;;5073328;28;20428;-61
2020/12/11 12:23:33;;;;;;;2.70;2.60;;;4.00;99.90;;;;;;5073010;28;20785;-61
2020/12/11 12:31:38;;;;;;;3.67;3.37;;;3.90;99.90;;;;;;5076937;28;20845;-60
2020/12/11 12:45:28;;;;;;;3.83;3.53;;;3.90;99.90;;;;;;5072592;28;20409;-61
2020/12/11 12:47:54;;;;;;;3.83;3.53;;;3.90;99.90;;;;;;5072374;28;20451;-61
2020/12/11 12:50:20;;;;;;;3.33;3.03;;;4.00;99.90;;;;;;5071708;28;20238;-61
2020/12/11 12:52:47;;;;;;;3.40;3.20;;;4.00;99.90;;;;;;5072476;28;20538;-60
2020/12/11 12:55:15;;;;;;;3.10;2.90;;;4.10;99.90;;;;;;5072373;28;20189;-61
2020/12/11 12:57:47;;;;;;;4.63;3.43;;;4.10;99.90;;;;;;5071940;28;20781;-60
2020/12/11 13:05:14;;;;;;;4.80;4.40;;;4.10;99.90;;;;;;5072458;28;20496;-61
2020/12/11 13:07:40;;;;;;;4.20;3.90;;;4.00;99.90;;;;;;5071818;28;20918;-61
2020/12/11 13:10:07;;;;;;;4.33;4.13;;;4.10;99.90;;;;;;5072465;28;20182;-61
2020/12/11 13:12:32;;;;;;;4.10;3.80;;;4.10;99.90;;;;;;5072067;28;20216;-59
2020/12/11 13:14:58;;;;;;;4.20;4.00;;;4.00;99.90;;;;;;5071958;28;20402;-60
2020/12/11 13:17:24;;;;;;;3.70;3.40;;;4.10;99.90;;;;;;5071905;28;20159;-60
2020/12/11 13:19:50;;;;;;;4.47;4.00;;;4.10;99.90;;;;;;5071579;28;20505;-61
2020/12/11 13:22:35;;;;;;;4.00;3.70;;;4.10;99.90;;;;;;5072088;28;20166;-60
2020/12/11 13:25:27;;;;;;;4.27;3.93;;;4.10;99.90;;;;;;5071885;28;20436;-61
2020/12/11 13:27:53;;;;;;;3.97;3.53;;;4.10;99.90;;;;;;5071704;28;20538;-61
2020/12/11 13:30:19;;;;;;;4.00;3.60;;;4.00;99.90;;;;;;5071874;28;20477;-60
2020/12/11 13:32:44;;;;;;;5.00;4.50;;;4.10;99.90;;;;;;5071929;28;20195;-60
2020/12/11 13:35:10;;;;;;;4.60;4.20;;;4.10;99.90;;;;;;5071731;28;20420;-61
2020/12/11 13:37:36;;;;;;;3.70;3.50;;;4.10;99.90;;;;;;5071716;28;20171;-61
2020/12/11 13:40:02;;;;;;;4.70;4.40;;;4.00;99.90;;;;;;5071833;28;20523;-61
2020/12/11 13:42:29;;;;;;;4.00;3.80;;;4.00;99.90;;;;;;5071766;28;20565;-61
2020/12/11 13:44:55;;;;;;;3.87;3.57;;;4.00;99.90;;;;;;5071685;28;20766;-60